TimePDT,TemperatureF,Dew PointF,Humidity,Sea Level PressureIn,VisibilityMPH,Wind Direction,Wind SpeedMPH,Gust SpeedMPH,PrecipitationIn,Events,Conditions,WindDirDegrees,DateUTC
12:55 AM,62.6,35.6,37,30.08,10.0,WNW,3.5,-,N/A,,Clear,290,2013-05-02 07:55:00
1:55 AM,60.8,32.0,34,30.09,10.0,North,4.6,-,N/A,,Clear,350,2013-05-02 08:55:00
3:50 AM,59.0,24.8,27,30.11,10.0,Calm,Calm,-,N/A,,Clear,0,2013-05-02 10:50:00
4:55 AM,57.2,28.4,33,30.11,10.0,NNW,4.6,-,N/A,,Clear,330,2013-05-02 11:55:00
5:50 AM,55.4,28.4,36,30.12,10.0,NNW,6.9,-,N/A,,Clear,330,2013-05-02 12:50:00
6:46 AM,55.4,28.4,36,30.14,10.0,NNW,4.6,-,N/A,,Clear,330,2013-05-02 13:46:00
7:46 AM,59.0,28.4,31,30.16,10.0,NNW,9.2,-,N/A,,Clear,330,2013-05-02 14:46:00
8:56 AM,66.2,26.6,23,30.16,10.0,NNW,9.2,-,N/A,,Clear,330,2013-05-02 15:56:00
9:46 AM,69.8,28.4,21,30.16,10.0,NW,6.9,-,N/A,,Clear,310,2013-05-02 16:46:00
10:46 AM,75.2,24.8,15,30.16,10.0,NW,9.2,-,N/A,,Clear,310,2013-05-02 17:46:00
11:46 AM,80.6,23.0,12,30.15,10.0,WNW,10.4,-,N/A,,Clear,300,2013-05-02 18:46:00
12:46 PM,82.4,23.0,11,30.13,10.0,WNW,6.9,-,N/A,,Clear,300,2013-05-02 19:46:00
1:45 PM,84.2,21.2,10,30.12,10.0,NNW,8.1,-,N/A,,Clear,330,2013-05-02 20:45:00
2:47 PM,86.0,17.6,8,30.11,10.0,NW,6.9,-,N/A,,Clear,310,2013-05-02 21:47:00
3:45 PM,89.6,21.2,8,30.09,10.0,WNW,8.1,-,N/A,,Clear,300,2013-05-02 22:45:00
4:50 PM,89.6,23.0,9,30.07,10.0,SW,5.8,-,N/A,,Clear,230,2013-05-02 23:50:00
5:45 PM,89.6,-9999,N/A,30.06,10.0,NW,8.1,-,N/A,,Clear,310,2013-05-03 00:45:00
7:45 PM,84.2,17.6,8,30.04,10.0,Calm,Calm,-,N/A,,Clear,0,2013-05-03 02:45:00
8:45 PM,75.2,30.2,19,30.05,10.0,Calm,Calm,-,N/A,,Clear,0,2013-05-03 03:45:00
9:45 PM,68.0,35.6,30,30.06,10.0,South,5.8,-,N/A,,Clear,190,2013-05-03 04:45:00
10:45 PM,64.4,37.4,37,30.05,10.0,Calm,Calm,-,N/A,,Clear,0,2013-05-03 05:45:00